Monday, December 18, 2017, 11:29 AM EST
Back to Local

KFDK, Frederick, Frederick Municipal Airport

Location: Frederick, MD, United States Lat: 39.417
Local Time: 11:29 AM EST (16:29 GMT) Lon: -77.374
Time Zone: US/Eastern Elev: 301 ft

Show me the last for .
Show Coded

Time T Td Feel RH Dir Speed Gust Alt SLP Vis Weather Sky Remarks
2017-12-18 10:47 45 30 - 56 - Calm - 30.13 - 10 OVC055 None
2017-12-18 09:47 43 32 - 65 - Calm - 30.15 - 7 OVC050 None
2017-12-18 08:47 37 36 - 93 - Calm - 30.16 - 5 BR OVC060 None
2017-12-18 07:47 34 34 - 100 - Calm - 30.15 - 4 BR BKN060 None
2017-12-18 06:50 34 34 - 100 - Calm - 30.15 - 7 OVC060 None
2017-12-18 06:45 36 34 - 93 - Calm - 30.15 - 7 OVC060 None
2017-12-18 06:25 34 34 - 100 - Calm - 30.15 - 7 OVC060 None
2017-12-18 06:05 34 34 - 100 - Calm - 30.14 - 7 SCT037 OVC060 None
2017-12-18 05:45 36 32 - 86 - Calm - 30.14 - 7 BKN037 BKN060 None
2017-12-18 05:25 37 32 - 80 - Calm - 30.14 - 7 OVC039 None
2017-12-18 05:05 37 34 - 86 - Calm - 30.15 - 7 OVC043 None
2017-12-18 04:45 37 34 34 86 360° 5 - 30.15 - 7 OVC045 None
2017-12-18 04:25 36 34 33 93 360° 3 - 30.15 - 7 BKN045 OVC075 None
2017-12-18 04:05 37 36 - 93 - Calm - 30.14 - 7 OVC045 None
2017-12-18 03:45 37 36 - 93 - Calm - 30.14 - 7 OVC040 None
2017-12-18 03:25 37 36 - 93 - Calm - 30.15 - 7 OVC042 None
2017-12-18 03:05 37 36 - 93 - Calm - 30.15 - 10 OVC042 None
2017-12-18 02:45 37 37 - 100 - Calm - 30.15 - 7 OVC044 None
2017-12-18 02:25 37 37 - 100 - Calm - 30.15 - 7 OVC046 None
2017-12-18 02:05 37 37 - 100 - Calm - 30.15 - 7 OVC046 None
2017-12-18 01:45 37 37 - 100 - Calm - 30.15 - 10 OVC046 None
2017-12-18 01:25 37 37 - 100 - Calm - 30.15 - 7 OVC046 None
2017-12-18 01:05 37 37 - 100 - Calm - 30.15 - 7 BKN046 OVC055 None
2017-12-18 00:45 37 37 - 100 - Calm - 30.15 - 10 BKN046 OVC055 None
2017-12-18 00:25 37 32 - 80 - Calm - 30.17 - 10 OVC046 None
2017-12-18 00:05 37 34 - 86 - Calm - 30.17 - 10 -DZ OVC048 None
2017-12-17 23:45 37 34 - 86 - Calm - 30.18 - 10 -DZ OVC050 None
2017-12-17 23:25 37 32 - 80 - Calm - 30.18 - 10 OVC050 None
2017-12-17 23:05 37 32 - 80 - Calm - 30.18 - 10 OVC055 None
2017-12-17 22:45 37 32 - 80 - Calm - 30.18 - 10 OVC065 None
2017-12-17 22:25 37 32 - 80 - Calm - 30.18 - 10 OVC065 None
2017-12-17 22:05 37 32 - 80 - Calm - 30.18 - 10 OVC065 None
2017-12-17 21:45 39 32 - 75 - Calm - 30.18 - 10 OVC065 None
2017-12-17 21:25 37 32 - 80 - Calm - 30.18 - 10 BKN065 OVC100 None
2017-12-17 21:05 39 32 - 75 - Calm - 30.18 - 10 SCT065 OVC100 None
2017-12-17 20:50 39 34 - 80 - Calm - 30.19 - 10 OVC100 None
2017-12-17 19:48 39 32 - 75 - Calm - 30.20 - 10 OVC100 None
2017-12-17 18:47 43 30 - 60 - Calm - 30.20 - 10 OVC110 None
2017-12-17 17:47 45 28 - 52 - Calm - 30.23 - 10 SCT076 BKN075 OVC085 None
2017-12-17 16:47 45 30 - 56 - Calm - 30.21 - 10 BKN085 OVC110 None
2017-12-17 15:47 46 28 - 49 - Calm - 30.20 - 10 SCT120 None
2017-12-17 14:47 48 27 47 42 220° 3 - 30.20 - 10 OVC120 None
2017-12-17 13:48 48 27 47 42 220° 3 - 30.21 - 10 OVC120 None
2017-12-17 12:47 48 27 - 42 - Calm - 30.23 - 10 CLR None
2017-12-17 11:50 45 28 - 52 - Calm - 30.27 - 10 OVC150 None

Support USWX by starting your Amazon purchase here.